createdAt,value
2018-09-09T00:00:10.886Z,8.20
2018-09-09T00:02:39.334Z,7.67
2018-09-09T00:05:07.802Z,7.87
2018-09-09T00:07:36.263Z,8.13
2018-09-09T00:10:04.923Z,8.03
2018-09-09T00:12:33.391Z,7.30
2018-09-09T00:15:01.850Z,7.47
2018-09-09T00:17:30.294Z,7.90
2018-09-09T00:19:58.747Z,7.93
2018-09-09T00:22:27.205Z,7.10
2018-09-09T00:24:55.642Z,6.90
2018-09-09T00:27:24.108Z,8.27
2018-09-09T00:29:52.571Z,7.93
2018-09-09T00:32:21.026Z,9.50
2018-09-09T00:34:49.477Z,8.50
2018-09-09T00:37:17.958Z,8.53
2018-09-09T00:39:46.455Z,7.63
2018-09-09T00:42:14.910Z,8.87
2018-09-09T00:44:43.379Z,7.40
2018-09-09T00:47:11.846Z,8.30
2018-09-09T00:49:45.730Z,8.30
2018-09-09T00:52:19.330Z,8.30
2018-09-09T00:54:47.787Z,8.20
2018-09-09T00:57:16.247Z,7.67
2018-09-09T00:59:44.727Z,7.97
2018-09-09T01:02:13.211Z,8.83
2018-09-09T01:04:41.679Z,8.30
2018-09-09T01:07:10.139Z,7.73
2018-09-09T01:09:38.604Z,8.80
2018-09-09T01:12:07.083Z,8.10
2018-09-09T01:14:35.670Z,8.43
2018-09-09T01:17:04.198Z,8.87
2018-09-09T01:19:32.675Z,9.07
2018-09-09T01:22:01.151Z,8.37
2018-09-09T01:24:29.654Z,9.10
2018-09-09T01:26:58.110Z,8.23
2018-09-09T01:29:26.594Z,8.63
2018-09-09T01:31:55.066Z,8.33
2018-09-09T01:34:23.530Z,9.30
2018-09-09T01:36:52.011Z,8.90
2018-09-09T01:39:20.514Z,8.63
2018-09-09T01:41:49.004Z,8.90
2018-09-09T01:44:17.459Z,8.90
2018-09-09T01:46:45.931Z,7.63
2018-09-09T01:49:14.406Z,6.50
2018-09-09T01:51:42.863Z,7.37
2018-09-09T01:54:11.311Z,8.33
2018-09-09T01:56:39.771Z,8.10
2018-09-09T01:59:08.218Z,8.63
2018-09-09T02:01:36.691Z,8.90
2018-09-09T02:04:05.162Z,8.00
2018-09-09T02:06:33.667Z,8.50
2018-09-09T02:09:02.167Z,10.17
2018-09-09T02:11:30.699Z,9.80
2018-09-09T02:13:59.171Z,8.63
2018-09-09T02:16:27.644Z,9.03
2018-09-09T02:18:56.095Z,7.63
2018-09-09T02:21:24.553Z,7.60
2018-09-09T02:23:53.061Z,8.10
2018-09-09T02:26:21.510Z,8.20
2018-09-09T02:28:49.975Z,8.80
2018-09-09T02:31:18.446Z,9.87
2018-09-09T02:33:46.918Z,9.10
2018-09-09T02:36:15.392Z,8.43
2018-09-09T02:38:43.858Z,8.73
2018-09-09T02:41:12.364Z,9.27
2018-09-09T02:43:40.812Z,9.63
2018-09-09T02:46:09.271Z,9.27
2018-09-09T02:48:37.734Z,9.63
2018-09-09T02:51:06.474Z,8.70
2018-09-09T02:53:34.959Z,11.33
2018-09-09T02:56:07.645Z,9.10
2018-09-09T02:58:36.102Z,9.27
2018-09-09T03:01:04.731Z,10.00
2018-09-09T03:03:33.207Z,9.53
2018-09-09T03:06:01.718Z,9.53
2018-09-09T03:08:31.522Z,8.70
2018-09-09T03:11:05.478Z,8.87
2018-09-09T03:13:33.963Z,8.73
2018-09-09T03:16:02.423Z,8.17
2018-09-09T03:18:30.894Z,8.40
2018-09-09T03:20:59.370Z,7.93
2018-09-09T03:23:28.760Z,8.70
2018-09-09T03:25:57.233Z,8.30
2018-09-09T03:28:25.761Z,8.80
2018-09-09T03:30:54.250Z,8.47
2018-09-09T03:33:22.728Z,8.97
2018-09-09T03:35:51.436Z,10.40
2018-09-09T03:38:20.250Z,9.80
2018-09-09T03:40:49.234Z,10.10
2018-09-09T03:43:17.691Z,9.50
2018-09-09T03:45:46.198Z,10.37
2018-09-09T03:48:14.666Z,9.20
2018-09-09T03:50:43.222Z,9.63
2018-09-09T03:53:11.682Z,9.00
2018-09-09T03:55:41.131Z,8.87
2018-09-09T03:58:09.591Z,9.47
2018-09-09T04:00:38.049Z,8.80
2018-09-09T04:03:07.194Z,10.40
2018-09-09T04:05:35.662Z,9.43
2018-09-09T04:08:04.142Z,10.47
2018-09-09T04:10:32.746Z,9.67
2018-09-09T04:13:01.198Z,9.53
2018-09-09T04:15:29.651Z,9.73
2018-09-09T04:17:58.132Z,9.70
2018-09-09T04:20:26.743Z,10.27
2018-09-09T04:22:55.207Z,9.60
2018-09-09T04:25:23.679Z,9.50
2018-09-09T04:27:52.143Z,9.13
2018-09-09T04:30:20.600Z,9.77
2018-09-09T04:32:49.050Z,9.77
2018-09-09T04:35:17.498Z,8.77
2018-09-09T04:37:45.950Z,8.47
2018-09-09T04:40:14.559Z,9.60
2018-09-09T04:42:43.100Z,10.40
2018-09-09T04:45:11.742Z,9.90
2018-09-09T04:47:40.486Z,11.60
2018-09-09T04:50:09.106Z,10.50
2018-09-09T04:52:37.563Z,11.27
2018-09-09T04:55:06.147Z,10.80
2018-09-09T04:57:34.615Z,11.40
2018-09-09T05:00:03.395Z,10.30
2018-09-09T05:02:31.879Z,11.20
2018-09-09T05:05:00.338Z,10.80
2018-09-09T05:07:28.879Z,11.67
2018-09-09T05:09:57.359Z,10.50
2018-09-09T05:12:25.835Z,10.10
2018-09-09T05:14:54.302Z,8.77
2018-09-09T05:17:22.783Z,9.97
2018-09-09T05:19:51.241Z,9.03
2018-09-09T05:22:19.695Z,10.00
2018-09-09T05:24:48.170Z,10.27
2018-09-09T05:27:16.654Z,9.03
2018-09-09T05:29:45.123Z,9.37
2018-09-09T05:32:14.469Z,9.47
2018-09-09T05:34:42.936Z,9.57
2018-09-09T05:37:11.402Z,9.50
2018-09-09T05:39:39.874Z,10.40
2018-09-09T05:42:08.459Z,10.20
2018-09-09T05:44:36.900Z,10.67
2018-09-09T05:47:05.399Z,9.73
2018-09-09T05:49:33.893Z,10.90
2018-09-09T05:52:02.359Z,9.50
2018-09-09T05:54:30.898Z,9.40
2018-09-09T05:56:59.370Z,9.30
2018-09-09T05:59:27.842Z,9.30
2018-09-09T06:01:57.491Z,8.33
2018-09-09T06:04:25.987Z,7.70
2018-09-09T06:06:54.449Z,8.33
2018-09-09T06:09:22.959Z,9.43
2018-09-09T06:11:51.439Z,8.80
2018-09-09T06:14:19.906Z,9.50
2018-09-09T06:16:48.403Z,8.80
2018-09-09T06:19:16.927Z,8.60
2018-09-09T06:21:45.443Z,8.27
2018-09-09T06:24:13.986Z,7.30
2018-09-09T06:26:42.737Z,8.20
2018-09-09T06:29:11.263Z,7.93
2018-09-09T06:31:39.754Z,7.77
2018-09-09T06:34:08.240Z,7.70
2018-09-09T06:36:36.723Z,8.07
2018-09-09T06:39:08.318Z,8.57
2018-09-09T06:41:36.770Z,7.67
2018-09-09T06:44:05.288Z,7.57
2018-09-09T06:46:33.791Z,7.67
2018-09-09T06:49:02.322Z,7.20
2018-09-09T06:51:30.787Z,7.17
2018-09-09T06:53:59.310Z,7.47
2018-09-09T06:56:27.803Z,8.97
2018-09-09T06:58:56.383Z,7.57
2018-09-09T07:01:24.880Z,7.20
2018-09-09T07:03:53.362Z,7.80
2018-09-09T07:06:21.838Z,7.83
2018-09-09T07:08:50.327Z,8.37
2018-09-09T07:11:18.879Z,9.10
2018-09-09T07:13:47.367Z,8.83
2018-09-09T07:16:15.871Z,9.50
2018-09-09T07:18:44.335Z,9.40
2018-09-09T07:21:12.835Z,10.60
2018-09-09T07:23:41.325Z,9.53
2018-09-09T07:26:09.834Z,9.53
2018-09-09T07:28:38.348Z,9.67
2018-09-09T07:31:06.810Z,8.37
2018-09-09T07:33:35.303Z,8.53
2018-09-09T07:36:03.793Z,7.40
2018-09-09T07:38:32.320Z,8.00
2018-09-09T07:41:00.784Z,7.13
2018-09-09T07:43:29.304Z,8.90
2018-09-09T07:45:57.795Z,8.23
2018-09-09T07:48:26.291Z,8.47
2018-09-09T07:50:54.804Z,7.73
2018-09-09T07:53:23.319Z,7.83
2018-09-09T07:55:51.822Z,6.83
2018-09-09T07:58:20.395Z,6.60
2018-09-09T08:00:48.958Z,6.80
2018-09-09T08:03:17.470Z,7.20
2018-09-09T08:05:45.919Z,6.07
2018-09-09T08:08:14.400Z,6.70
2018-09-09T08:10:42.904Z,6.70
2018-09-09T08:13:11.410Z,6.93
2018-09-09T08:15:39.911Z,6.17
2018-09-09T08:18:08.460Z,6.43
2018-09-09T08:20:36.974Z,6.23
2018-09-09T08:23:05.500Z,6.50
2018-09-09T08:25:34.088Z,6.00
2018-09-09T08:28:02.563Z,6.00
2018-09-09T08:30:31.103Z,5.90
2018-09-09T08:32:59.743Z,5.87
2018-09-09T08:35:28.279Z,5.60
2018-09-09T08:37:56.747Z,5.93
2018-09-09T08:40:25.223Z,5.63
2018-09-09T08:42:53.703Z,4.93
2018-09-09T08:45:22.216Z,5.70
2018-09-09T08:47:50.690Z,5.93
2018-09-09T08:50:19.234Z,6.47
2018-09-09T08:52:47.759Z,5.53
2018-09-09T08:55:16.219Z,6.10
2018-09-09T08:57:44.755Z,5.67
2018-09-09T09:00:13.246Z,6.10
2018-09-09T09:02:41.739Z,6.10
2018-09-09T09:05:10.301Z,5.30
2018-09-09T09:07:38.797Z,5.97
2018-09-09T09:10:07.325Z,6.00
2018-09-09T09:12:35.803Z,6.40
2018-09-09T09:15:04.571Z,6.40
2018-09-09T09:17:33.127Z,6.37
2018-09-09T09:20:01.828Z,5.30
2018-09-09T09:22:30.337Z,6.27
2018-09-09T09:24:58.820Z,5.50
2018-09-09T09:27:27.310Z,6.27
2018-09-09T09:29:56.799Z,6.10
2018-09-09T09:32:25.778Z,5.60
2018-09-09T09:34:55.237Z,5.60
2018-09-09T09:37:24.916Z,6.03
2018-09-09T09:39:54.335Z,5.90
2018-09-09T09:42:23.327Z,5.80
2018-09-09T09:44:51.860Z,6.20
2018-09-09T09:47:20.361Z,7.13
2018-09-09T09:49:48.875Z,5.20
2018-09-09T09:52:17.379Z,6.43
2018-09-09T09:54:45.854Z,5.67
2018-09-09T09:57:14.326Z,5.90
2018-09-09T09:59:42.783Z,6.00
2018-09-09T10:02:11.263Z,6.23
2018-09-09T10:04:39.739Z,5.90
2018-09-09T10:07:08.228Z,5.60
2018-09-09T10:09:36.743Z,5.80
2018-09-09T10:12:05.230Z,6.33
2018-09-09T10:14:33.730Z,5.63
2018-09-09T10:17:02.210Z,6.40
2018-09-09T10:19:30.684Z,5.90
2018-09-09T10:21:59.155Z,5.80
2018-09-09T10:24:27.635Z,5.67
2018-09-09T10:26:56.100Z,5.80
2018-09-09T10:29:24.551Z,5.97
2018-09-09T10:31:53.038Z,6.97
2018-09-09T10:34:21.515Z,5.63
2018-09-09T10:36:50.089Z,6.50
2018-09-09T10:39:18.595Z,6.57
2018-09-09T10:41:47.067Z,6.10
2018-09-09T10:44:15.543Z,5.97
2018-09-09T10:46:44.072Z,5.40
2018-09-09T10:49:12.520Z,5.47
2018-09-09T10:51:40.994Z,6.17
2018-09-09T10:54:09.451Z,7.00
2018-09-09T10:56:37.971Z,5.83
2018-09-09T10:59:06.446Z,6.03
2018-09-09T11:01:34.947Z,5.80
2018-09-09T11:04:03.450Z,6.50
2018-09-09T11:06:31.975Z,6.43
2018-09-09T11:09:00.451Z,6.13
2018-09-09T11:11:28.927Z,6.00
2018-09-09T11:13:57.395Z,5.60
2018-09-09T11:16:25.870Z,6.07
2018-09-09T11:18:54.391Z,6.00
2018-09-09T11:21:22.798Z,6.73
2018-09-09T11:23:51.278Z,6.23
2018-09-09T11:26:19.758Z,6.20
2018-09-09T11:28:48.279Z,5.97
2018-09-09T11:31:16.799Z,5.60
2018-09-09T11:33:45.262Z,6.03
2018-09-09T11:36:14.925Z,6.50
2018-09-09T11:38:43.458Z,5.60
2018-09-09T11:41:11.912Z,5.30
2018-09-09T11:43:40.442Z,6.07
2018-09-09T11:46:08.911Z,5.70
2018-09-09T11:48:37.498Z,6.40
2018-09-09T11:51:06.050Z,6.07
2018-09-09T11:53:34.611Z,5.90
2018-09-09T11:56:03.140Z,6.27
2018-09-09T11:58:31.663Z,6.07
2018-09-09T12:01:00.162Z,5.57
2018-09-09T12:03:28.651Z,6.30
2018-09-09T12:05:57.113Z,5.67
2018-09-09T12:08:25.687Z,5.07
2018-09-09T12:10:54.159Z,5.57
2018-09-09T12:13:22.654Z,5.33
2018-09-09T12:15:51.156Z,5.00
2018-09-09T12:18:19.622Z,5.60
2018-09-09T12:20:48.128Z,5.60
2018-09-09T12:23:16.595Z,5.87
2018-09-09T12:25:45.123Z,5.80
2018-09-09T12:28:13.638Z,6.83
2018-09-09T12:30:42.112Z,5.87
2018-09-09T12:33:10.611Z,5.20
2018-09-09T12:35:39.077Z,5.43
2018-09-09T12:38:07.568Z,6.43
2018-09-09T12:40:36.056Z,5.93
2018-09-09T12:43:09.796Z,5.27
2018-09-09T12:45:43.570Z,6.47
2018-09-09T12:48:17.175Z,6.00
2018-09-09T12:50:45.703Z,5.90
2018-09-09T12:53:14.257Z,5.90
2018-09-09T12:55:42.756Z,5.90
2018-09-09T12:58:11.254Z,5.87
2018-09-09T13:00:39.756Z,6.20
2018-09-09T13:03:08.240Z,6.40
2018-09-09T13:05:36.711Z,4.67
2018-09-09T13:08:05.361Z,5.70
2018-09-09T13:10:33.890Z,5.43
2018-09-09T13:13:07.779Z,6.20
2018-09-09T13:15:36.268Z,4.83
2018-09-09T13:18:04.905Z,6.40
2018-09-09T13:20:33.533Z,5.10
2018-09-09T13:23:02.026Z,6.07
2018-09-09T13:25:30.507Z,6.13
2018-09-09T13:27:59.028Z,5.90
2018-09-09T13:30:27.507Z,5.60
2018-09-09T13:32:55.960Z,5.43
2018-09-09T13:35:24.441Z,5.23
2018-09-09T13:37:52.933Z,5.50
2018-09-09T13:40:21.491Z,5.60
2018-09-09T13:42:50.010Z,6.30
2018-09-09T13:45:18.536Z,6.10
2018-09-09T13:47:47.051Z,5.90
2018-09-09T13:50:15.606Z,5.70
2018-09-09T13:52:44.101Z,5.90
2018-09-09T13:55:12.607Z,6.43
2018-09-09T13:57:41.075Z,5.97
2018-09-09T14:00:09.780Z,5.40
2018-09-09T14:02:38.259Z,5.73
2018-09-09T14:05:06.844Z,5.13
2018-09-09T14:07:35.379Z,5.90
2018-09-09T14:10:04.030Z,6.17
2018-09-09T14:12:32.543Z,5.70
2018-09-09T14:15:01.036Z,5.37
2018-09-09T14:17:29.541Z,5.30
2018-09-09T14:19:58.075Z,5.30
2018-09-09T14:22:26.625Z,5.63
2018-09-09T14:24:55.060Z,5.23
2018-09-09T14:27:23.655Z,5.97
2018-09-09T14:29:52.136Z,6.03
2018-09-09T14:32:20.666Z,5.43
2018-09-09T14:34:49.119Z,5.60
2018-09-09T14:37:17.966Z,5.40
2018-09-09T14:39:46.499Z,5.03
2018-09-09T14:42:14.977Z,5.90
2018-09-09T14:44:43.475Z,5.47
2018-09-09T14:47:11.976Z,5.90
2018-09-09T14:49:40.475Z,5.20
2018-09-09T14:52:08.978Z,6.10
2018-09-09T14:54:37.455Z,5.87
2018-09-09T14:57:05.944Z,6.13
2018-09-09T14:59:34.471Z,5.70
2018-09-09T15:02:02.995Z,5.73
2018-09-09T15:04:31.550Z,5.37
2018-09-09T15:07:00.028Z,5.50
2018-09-09T15:09:28.483Z,6.20
2018-09-09T15:11:56.956Z,5.40
2018-09-09T15:14:25.493Z,6.10
2018-09-09T15:16:53.964Z,5.57
2018-09-09T15:19:22.434Z,5.87
2018-09-09T15:21:51.029Z,6.27
2018-09-09T15:24:19.511Z,6.57
2018-09-09T15:26:47.994Z,5.47
2018-09-09T15:29:16.463Z,6.47
2018-09-09T15:31:44.943Z,5.37
2018-09-09T15:34:13.433Z,5.53
2018-09-09T15:36:41.911Z,5.47
2018-09-09T15:39:10.390Z,6.00
2018-09-09T15:41:38.838Z,6.20
2018-09-09T15:44:07.355Z,6.67
2018-09-09T15:46:35.966Z,6.07
2018-09-09T15:49:04.483Z,6.40
2018-09-09T15:51:32.950Z,5.93
2018-09-09T15:54:01.450Z,6.40
2018-09-09T15:56:29.934Z,5.47
2018-09-09T15:58:59.128Z,6.27
2018-09-09T16:01:27.663Z,6.40
2018-09-09T16:03:56.166Z,6.17
2018-09-09T16:06:24.667Z,6.00
2018-09-09T16:08:53.141Z,6.47
2018-09-09T16:11:21.681Z,6.37
2018-09-09T16:13:50.191Z,5.93
2018-09-09T16:16:18.672Z,6.33
2018-09-09T16:18:47.184Z,5.93
2018-09-09T16:21:15.657Z,5.87
2018-09-09T16:23:44.146Z,5.77
2018-09-09T16:26:12.711Z,6.13
2018-09-09T16:28:41.213Z,6.13
2018-09-09T16:31:09.678Z,6.50
2018-09-09T16:33:38.185Z,5.40
2018-09-09T16:36:06.747Z,5.93
2018-09-09T16:38:35.251Z,6.80
2018-09-09T16:41:03.772Z,6.30
2018-09-09T16:43:32.261Z,6.20
2018-09-09T16:46:00.784Z,7.10
2018-09-09T16:48:29.251Z,6.90
2018-09-09T16:50:57.731Z,6.70
2018-09-09T16:53:26.221Z,7.13
2018-09-09T16:55:54.706Z,6.87
2018-09-09T16:58:23.168Z,5.93
2018-09-09T17:00:51.744Z,7.83
2018-09-09T17:03:20.299Z,6.83
2018-09-09T17:05:48.795Z,6.83
2018-09-09T17:08:17.271Z,6.30
2018-09-09T17:10:45.811Z,7.73
2018-09-09T17:13:14.296Z,6.87
2018-09-09T17:15:42.936Z,6.70
2018-09-09T17:18:11.436Z,7.10
2018-09-09T17:20:39.931Z,7.10
2018-09-09T17:23:08.394Z,6.93
2018-09-09T17:25:36.943Z,7.97
2018-09-09T17:28:05.504Z,7.07
2018-09-09T17:30:34.006Z,7.43
2018-09-09T17:33:02.481Z,7.80
2018-09-09T17:35:31.068Z,7.33
2018-09-09T17:37:59.543Z,7.57
2018-09-09T17:40:28.023Z,7.10
2018-09-09T17:42:56.494Z,6.80
2018-09-09T17:45:24.995Z,8.07
2018-09-09T17:47:53.471Z,8.20
2018-09-09T17:50:21.950Z,7.57
2018-09-09T17:52:50.546Z,8.30
2018-09-09T17:55:19.017Z,7.80
2018-09-09T17:57:47.490Z,7.83
2018-09-09T18:00:15.950Z,7.83
2018-09-09T18:02:44.502Z,8.40
2018-09-09T18:05:12.935Z,8.60
2018-09-09T18:07:41.411Z,7.43
2018-09-09T18:10:09.952Z,7.83
2018-09-09T18:12:38.414Z,8.80
2018-09-09T18:15:07.099Z,7.90
2018-09-09T18:17:35.575Z,8.93
2018-09-09T18:20:04.185Z,8.10
2018-09-09T18:22:32.832Z,8.70
2018-09-09T18:25:01.306Z,7.77
2018-09-09T18:27:29.786Z,8.03
2018-09-09T18:29:58.265Z,8.60
2018-09-09T18:32:26.743Z,8.60
2018-09-09T18:34:55.243Z,8.27
2018-09-09T18:37:23.739Z,9.00
2018-09-09T18:39:52.218Z,13.40
2018-09-09T18:42:20.672Z,11.37
2018-09-09T18:44:49.346Z,8.50
2018-09-09T18:47:17.814Z,10.53
2018-09-09T18:49:46.322Z,10.00
2018-09-09T18:52:14.818Z,9.27
2018-09-09T18:54:43.315Z,10.73
2018-09-09T18:57:11.795Z,11.80
2018-09-09T18:59:40.286Z,13.33
2018-09-09T19:02:08.793Z,11.53
2018-09-09T19:04:37.271Z,10.90
2018-09-09T19:07:05.942Z,11.90
2018-09-09T19:09:35.391Z,13.00
2018-09-09T19:12:03.883Z,12.07
2018-09-09T19:14:32.455Z,11.63
2018-09-09T19:17:00.995Z,11.27
2018-09-09T19:19:29.499Z,11.70
2018-09-09T19:21:58.111Z,11.80
2018-09-09T19:24:26.490Z,11.80
2018-09-09T19:26:54.981Z,12.30
2018-09-09T19:29:23.457Z,12.47
2018-09-09T19:31:51.946Z,10.67
2018-09-09T19:34:20.503Z,10.83
2018-09-09T19:36:48.978Z,11.63
2018-09-09T19:39:17.456Z,13.10
2018-09-09T19:41:45.917Z,12.60
2018-09-09T19:44:14.535Z,10.40
2018-09-09T19:46:42.958Z,11.40
2018-09-09T19:49:11.455Z,13.00
2018-09-09T19:51:39.955Z,12.37
2018-09-09T19:54:08.467Z,11.63
2018-09-09T19:56:36.982Z,11.23
2018-09-09T19:59:05.488Z,10.50
2018-09-09T20:01:34.019Z,10.33
2018-09-09T20:04:02.531Z,10.07
2018-09-09T20:06:31.027Z,10.63
2018-09-09T20:08:59.517Z,8.93
2018-09-09T20:11:27.963Z,10.10
2018-09-09T20:13:56.471Z,9.30
2018-09-09T20:16:24.955Z,9.90
2018-09-09T20:18:53.443Z,9.10
2018-09-09T20:21:21.938Z,9.33
2018-09-09T20:23:50.416Z,9.10
2018-09-09T20:26:18.958Z,9.67
2018-09-09T20:28:47.423Z,10.43
2018-09-09T20:31:15.899Z,10.00
2018-09-09T20:33:44.368Z,10.03
2018-09-09T20:36:12.843Z,10.33
2018-09-09T20:38:41.377Z,9.77
2018-09-09T20:41:09.815Z,10.37
2018-09-09T20:43:38.286Z,9.40
2018-09-09T20:46:06.868Z,8.40
2018-09-09T20:48:35.592Z,9.80
2018-09-09T20:51:04.028Z,8.97
2018-09-09T20:53:32.570Z,9.30
2018-09-09T20:56:01.119Z,9.13
2018-09-09T20:58:29.601Z,7.60
2018-09-09T21:00:58.147Z,8.93
2018-09-09T21:03:26.623Z,8.43
2018-09-09T21:05:55.210Z,10.20
2018-09-09T21:08:23.696Z,9.60
2018-09-09T21:10:52.247Z,10.23
2018-09-09T21:13:20.715Z,9.77
2018-09-09T21:15:49.195Z,10.10
2018-09-09T21:18:17.675Z,9.87
2018-09-09T21:20:46.196Z,9.60
2018-09-09T21:23:14.690Z,8.80
2018-09-09T21:25:43.188Z,9.07
2018-09-09T21:28:11.656Z,9.70
2018-09-09T21:30:40.143Z,9.73
2018-09-09T21:33:08.679Z,9.23
2018-09-09T21:35:37.122Z,9.23
2018-09-09T21:38:05.723Z,9.70
2018-09-09T21:40:34.300Z,7.90
2018-09-09T21:43:02.778Z,9.40
2018-09-09T21:45:31.358Z,9.63
2018-09-09T21:47:59.827Z,8.30
2018-09-09T21:50:28.322Z,9.10
2018-09-09T21:52:56.826Z,8.90
2018-09-09T21:55:25.321Z,8.87
2018-09-09T21:57:53.773Z,9.50
2018-09-09T22:00:22.359Z,9.83
2018-09-09T22:02:50.879Z,9.40
2018-09-09T22:05:19.382Z,9.80
2018-09-09T22:07:47.837Z,9.60
2018-09-09T22:10:16.377Z,8.97
2018-09-09T22:12:44.860Z,9.33
2018-09-09T22:15:13.347Z,9.37
2018-09-09T22:17:41.813Z,9.03
2018-09-09T22:20:10.418Z,9.60
2018-09-09T22:22:38.931Z,10.87
2018-09-09T22:25:07.409Z,10.47
2018-09-09T22:27:35.928Z,10.33
2018-09-09T22:30:04.508Z,10.50
2018-09-09T22:32:32.983Z,9.93
2018-09-09T22:35:01.474Z,9.43
2018-09-09T22:37:29.942Z,9.63
2018-09-09T22:39:58.431Z,9.47
2018-09-09T22:42:26.904Z,9.70
2018-09-09T22:44:55.408Z,10.80
2018-09-09T22:47:23.908Z,10.10
2018-09-09T22:49:52.462Z,10.90
2018-09-09T22:52:20.971Z,11.90
2018-09-09T22:54:49.446Z,11.40
2018-09-09T22:57:17.959Z,10.30
2018-09-09T22:59:46.435Z,11.37
2018-09-09T23:02:14.932Z,11.07
2018-09-09T23:04:43.416Z,12.10
2018-09-09T23:07:11.898Z,12.23
2018-09-09T23:09:40.354Z,10.37
2018-09-09T23:12:08.864Z,10.10
2018-09-09T23:14:37.388Z,9.87
2018-09-09T23:17:05.871Z,9.80
2018-09-09T23:19:34.415Z,9.50
2018-09-09T23:22:02.915Z,11.10
2018-09-09T23:24:31.378Z,9.73
2018-09-09T23:26:59.869Z,10.00
2018-09-09T23:29:28.335Z,9.83
2018-09-09T23:31:56.811Z,9.03
2018-09-09T23:34:25.259Z,9.83
2018-09-09T23:36:53.744Z,10.00
2018-09-09T23:39:22.227Z,9.70
2018-09-09T23:41:50.739Z,10.10
2018-09-09T23:44:19.208Z,9.83
2018-09-09T23:46:47.723Z,10.90
2018-09-09T23:49:16.255Z,12.03
2018-09-09T23:51:44.764Z,10.60
2018-09-09T23:54:13.235Z,11.37
2018-09-09T23:56:41.767Z,11.27
2018-09-09T23:59:10.291Z,10.40
